createdAt,value
2017-11-08T00:01:15.054Z,12.82
2017-11-08T00:03:42.058Z,12.05
2017-11-08T00:06:08.326Z,12.40
2017-11-08T00:08:34.627Z,13.62
2017-11-08T00:11:00.889Z,12.90
2017-11-08T00:13:27.189Z,13.30
2017-11-08T00:15:53.475Z,12.75
2017-11-08T00:18:19.814Z,13.10
2017-11-08T00:20:46.106Z,12.90
2017-11-08T00:23:12.386Z,12.73
2017-11-08T00:25:38.698Z,12.70
2017-11-08T00:28:05.705Z,12.40
2017-11-08T00:30:32.003Z,11.80
2017-11-08T00:32:58.302Z,13.05
2017-11-08T00:35:24.571Z,13.73
2017-11-08T00:37:50.866Z,14.77
2017-11-08T00:40:17.146Z,13.35
2017-11-08T00:42:44.171Z,13.98
2017-11-08T00:45:11.228Z,14.13
2017-11-08T00:47:37.527Z,13.60
2017-11-08T00:50:03.818Z,14.82
2017-11-08T00:52:30.871Z,12.80
2017-11-08T00:54:57.150Z,15.60
2017-11-08T00:57:30.383Z,12.88
2017-11-08T00:59:59.559Z,13.13
2017-11-08T01:02:26.607Z,14.30
2017-11-08T01:04:52.879Z,13.82
2017-11-08T01:07:19.174Z,15.02
2017-11-08T01:09:45.454Z,14.05
2017-11-08T01:12:12.467Z,13.60
2017-11-08T01:14:38.774Z,13.52
2017-11-08T01:17:05.050Z,12.82
2017-11-08T01:19:31.314Z,14.07
2017-11-08T01:21:58.374Z,13.60
2017-11-08T01:24:25.389Z,12.95
2017-11-08T01:26:51.642Z,13.50
2017-11-08T01:29:17.951Z,13.90
2017-11-08T01:31:44.235Z,12.75
2017-11-08T01:34:10.511Z,14.75
2017-11-08T01:36:36.823Z,12.82
2017-11-08T01:39:04.946Z,13.13
2017-11-08T01:41:32.021Z,13.73
2017-11-08T01:43:59.398Z,14.90
2017-11-08T01:46:25.687Z,14.48
2017-11-08T01:48:51.994Z,15.95
2017-11-08T01:51:18.332Z,16.42
2017-11-08T01:53:44.626Z,14.65
2017-11-08T01:56:11.698Z,14.15
2017-11-08T01:58:38.030Z,14.23
2017-11-08T02:01:05.050Z,14.32
2017-11-08T02:03:31.354Z,15.20
2017-11-08T02:05:57.662Z,16.25
2017-11-08T02:08:23.965Z,13.70
2017-11-08T02:10:50.255Z,14.77
2017-11-08T02:13:16.570Z,14.20
2017-11-08T02:15:45.963Z,14.65
2017-11-08T02:18:18.358Z,14.95
2017-11-08T02:20:44.711Z,14.82
2017-11-08T02:23:11.007Z,14.93
2017-11-08T02:25:37.291Z,14.40
2017-11-08T02:28:03.639Z,13.88
2017-11-08T02:30:29.950Z,14.57
2017-11-08T02:32:56.278Z,15.10
2017-11-08T02:35:22.602Z,12.52
2017-11-08T02:37:48.898Z,16.15
2017-11-08T02:40:15.219Z,14.70
2017-11-08T02:42:41.511Z,15.35
2017-11-08T02:45:07.854Z,14.10
2017-11-08T02:47:34.134Z,13.95
2017-11-08T02:50:00.436Z,14.48
2017-11-08T02:52:26.727Z,14.20
2017-11-08T02:54:59.027Z,13.73
2017-11-08T02:57:25.338Z,14.45
2017-11-08T02:59:51.602Z,13.20
2017-11-08T03:02:23.929Z,13.55
2017-11-08T03:04:50.272Z,14.10
2017-11-08T03:07:16.555Z,12.57
2017-11-08T03:09:42.830Z,15.20
2017-11-08T03:12:09.132Z,14.00
2017-11-08T03:14:35.419Z,16.20
2017-11-08T03:17:01.689Z,16.08
2017-11-08T03:19:28.043Z,15.18
2017-11-08T03:21:55.055Z,15.50
2017-11-08T03:24:21.343Z,14.63
2017-11-08T03:26:47.666Z,13.75
2017-11-08T03:29:15.402Z,15.07
2017-11-08T03:31:41.669Z,14.02
2017-11-08T03:34:09.819Z,15.23
2017-11-08T03:36:36.154Z,14.75
2017-11-08T03:39:02.538Z,14.77
2017-11-08T03:41:28.833Z,15.30
2017-11-08T03:43:55.132Z,15.57
2017-11-08T03:46:22.909Z,13.38
2017-11-08T03:48:49.927Z,13.98
2017-11-08T03:51:16.266Z,14.80
2017-11-08T03:53:42.537Z,15.00
2017-11-08T03:56:08.847Z,13.57
2017-11-08T03:58:35.122Z,13.80
2017-11-08T04:01:01.419Z,14.52
2017-11-08T04:03:27.736Z,15.77
2017-11-08T04:05:54.742Z,14.05
2017-11-08T04:08:21.074Z,15.93
2017-11-08T04:10:47.386Z,14.50
2017-11-08T04:13:13.710Z,17.15
2017-11-08T04:15:40.019Z,15.82
2017-11-08T04:18:06.315Z,14.95
2017-11-08T04:20:32.599Z,15.55
2017-11-08T04:22:58.886Z,16.75
2017-11-08T04:25:25.217Z,15.40
2017-11-08T04:27:52.262Z,16.52
2017-11-08T04:30:18.531Z,15.25
2017-11-08T04:32:45.934Z,16.05
2017-11-08T04:35:12.202Z,16.75
2017-11-08T04:37:38.479Z,15.57
2017-11-08T04:40:04.824Z,15.38
2017-11-08T04:42:31.852Z,16.27
2017-11-08T04:44:58.139Z,15.07
2017-11-08T04:47:24.448Z,16.30
2017-11-08T04:49:50.715Z,15.07
2017-11-08T04:52:17.751Z,15.55
2017-11-08T04:54:44.808Z,16.83
2017-11-08T04:57:11.122Z,14.90
2017-11-08T04:59:37.426Z,14.50
2017-11-08T05:02:03.746Z,17.12
2017-11-08T05:04:30.015Z,15.35
2017-11-08T05:06:56.274Z,16.52
2017-11-08T05:09:22.586Z,17.60
2017-11-08T05:11:48.846Z,16.42
2017-11-08T05:14:15.134Z,17.58
2017-11-08T05:16:42.149Z,17.98
2017-11-08T05:19:08.418Z,18.60
2017-11-08T05:21:34.713Z,18.60
2017-11-08T05:24:01.016Z,17.33
2017-11-08T05:26:27.282Z,19.83
2017-11-08T05:28:54.327Z,18.80
2017-11-08T05:31:21.378Z,17.02
2017-11-08T05:33:47.631Z,19.75
2017-11-08T05:36:13.942Z,17.33
2017-11-08T05:38:40.212Z,18.52
2017-11-08T05:41:06.477Z,20.25
2017-11-08T05:43:34.006Z,19.37
2017-11-08T05:46:01.033Z,18.92
2017-11-08T05:48:27.322Z,18.40
2017-11-08T05:50:53.602Z,17.70
2017-11-08T05:53:19.931Z,18.25
2017-11-08T05:55:46.223Z,17.58
2017-11-08T05:58:12.506Z,18.17
2017-11-08T06:00:38.802Z,19.10
2017-11-08T06:03:05.071Z,18.52
2017-11-08T06:05:31.327Z,20.17
2017-11-08T06:07:57.654Z,17.40
2017-11-08T06:10:24.675Z,19.02
2017-11-08T06:12:50.967Z,18.50
2017-11-08T06:15:17.276Z,18.30
2017-11-08T06:17:43.539Z,18.02
2017-11-08T06:20:09.827Z,18.20
2017-11-08T06:22:36.119Z,17.35
2017-11-08T06:25:02.438Z,18.55
2017-11-08T06:27:28.682Z,19.15
2017-11-08T06:29:54.963Z,19.33
2017-11-08T06:32:21.983Z,18.58
2017-11-08T06:34:49.142Z,17.75
2017-11-08T06:37:15.421Z,18.08
2017-11-08T06:39:41.711Z,18.85
2017-11-08T06:42:08.999Z,17.70
2017-11-08T06:44:36.011Z,17.30
2017-11-08T06:47:02.283Z,17.10
2017-11-08T06:49:29.575Z,17.45
2017-11-08T06:51:56.615Z,18.50
2017-11-08T06:54:22.903Z,19.23
2017-11-08T06:56:49.207Z,20.17
2017-11-08T06:59:16.275Z,17.85
2017-11-08T07:01:42.536Z,17.48
2017-11-08T07:04:09.556Z,15.85
2017-11-08T07:06:35.874Z,16.98
2017-11-08T07:09:02.200Z,18.17
2017-11-08T07:11:31.411Z,17.27
2017-11-08T07:13:57.738Z,17.62
2017-11-08T07:16:24.730Z,20.37
2017-11-08T07:18:51.018Z,18.20
2017-11-08T07:21:17.342Z,16.85
2017-11-08T07:23:43.611Z,17.42
2017-11-08T07:26:10.642Z,16.42
2017-11-08T07:28:36.919Z,17.50
2017-11-08T07:31:03.214Z,18.60
2017-11-08T07:33:29.498Z,19.10
2017-11-08T07:35:55.783Z,16.25
2017-11-08T07:38:22.030Z,19.75
2017-11-08T07:40:48.319Z,16.40
2017-11-08T07:43:14.645Z,18.17
2017-11-08T07:45:41.674Z,18.08
2017-11-08T07:48:08.183Z,19.17
2017-11-08T07:50:34.514Z,17.55
2017-11-08T07:53:00.803Z,18.30
2017-11-08T07:55:33.278Z,17.98
2017-11-08T07:57:59.606Z,17.85
2017-11-08T08:00:25.939Z,18.62
2017-11-08T08:02:52.206Z,16.75
2017-11-08T08:05:18.502Z,17.95
2017-11-08T08:07:45.515Z,19.62
2017-11-08T08:10:11.815Z,16.80
2017-11-08T08:12:38.126Z,15.73
2017-11-08T08:15:04.399Z,16.77
2017-11-08T08:17:30.665Z,18.02
2017-11-08T08:19:57.362Z,14.90
2017-11-08T08:22:24.655Z,18.08
2017-11-08T08:24:50.937Z,17.58
2017-11-08T08:27:17.247Z,16.33
2017-11-08T08:29:43.560Z,16.95
2017-11-08T08:32:10.552Z,16.10
2017-11-08T08:34:36.861Z,16.73
2017-11-08T08:37:03.914Z,16.75
2017-11-08T08:39:30.222Z,15.73
2017-11-08T08:41:56.509Z,17.33
2017-11-08T08:44:22.795Z,18.95
2017-11-08T08:46:49.072Z,16.33
2017-11-08T08:49:15.331Z,18.73
2017-11-08T08:51:41.648Z,15.05
2017-11-08T08:54:07.910Z,14.77
2017-11-08T08:56:34.944Z,16.12
2017-11-08T08:59:01.970Z,17.17
2017-11-08T09:01:28.252Z,18.25
2017-11-08T09:03:54.533Z,18.15
2017-11-08T09:06:20.848Z,15.38
2017-11-08T09:08:48.147Z,18.00
2017-11-08T09:11:14.443Z,16.48
2017-11-08T09:13:41.482Z,19.90
2017-11-08T09:16:07.799Z,15.85
2017-11-08T09:18:34.119Z,14.50
2017-11-08T09:21:00.414Z,18.25
2017-11-08T09:23:30.590Z,17.85
2017-11-08T09:25:56.955Z,17.15
2017-11-08T09:28:23.275Z,17.77
2017-11-08T09:30:49.626Z,15.68
2017-11-08T09:33:16.028Z,17.12
2017-11-08T09:35:42.458Z,17.15
2017-11-08T09:38:08.774Z,16.10
2017-11-08T09:40:46.363Z,15.45
2017-11-08T09:46:01.562Z,17.30
2017-11-08T09:48:27.914Z,19.12
2017-11-08T09:50:54.179Z,19.27
2017-11-08T09:53:20.455Z,17.58
2017-11-08T09:55:51.543Z,18.40
2017-11-08T09:58:17.870Z,17.30
2017-11-08T10:00:50.071Z,19.73
2017-11-08T10:03:19.338Z,19.95
2017-11-08T10:05:45.628Z,18.12
2017-11-08T10:08:12.636Z,17.87
2017-11-08T10:10:39.000Z,19.17
2017-11-08T10:13:10.449Z,17.12
2017-11-08T10:15:39.570Z,17.12
2017-11-08T10:18:05.894Z,18.02
2017-11-08T10:20:32.166Z,19.00
2017-11-08T10:23:00.154Z,18.73
2017-11-08T10:25:26.517Z,19.45
2017-11-08T10:27:54.782Z,19.20
2017-11-08T10:30:21.589Z,17.17
2017-11-08T10:32:47.950Z,17.00
2017-11-08T10:35:14.252Z,18.55
2017-11-08T10:37:40.539Z,18.42
2017-11-08T10:40:08.063Z,18.15
2017-11-08T10:42:34.365Z,19.70
2017-11-08T10:45:00.663Z,16.70
2017-11-08T10:47:26.984Z,17.45
2017-11-08T10:49:54.188Z,20.08
2017-11-08T10:52:20.507Z,19.52
2017-11-08T10:54:47.567Z,20.15
2017-11-08T10:57:13.910Z,19.40
2017-11-08T10:59:46.293Z,19.52
2017-11-08T11:02:13.375Z,18.23
2017-11-08T11:04:41.524Z,17.12
2017-11-08T11:07:07.865Z,17.23
2017-11-08T11:09:34.960Z,18.12
2017-11-08T11:12:02.071Z,17.30
2017-11-08T11:14:28.380Z,17.55
2017-11-08T11:16:54.711Z,19.20
2017-11-08T11:19:21.739Z,19.37
2017-11-08T11:21:48.071Z,19.60
2017-11-08T11:24:14.391Z,18.20
2017-11-08T11:26:40.727Z,19.30
2017-11-08T11:29:07.040Z,21.23
2017-11-08T11:31:33.372Z,19.25
2017-11-08T11:33:59.688Z,17.73
2017-11-08T11:36:25.992Z,17.85
2017-11-08T11:38:54.137Z,20.92
2017-11-08T11:41:22.092Z,18.52
2017-11-08T11:43:48.410Z,20.67
2017-11-08T11:46:14.738Z,18.08
2017-11-08T11:48:42.012Z,17.92
2017-11-08T11:51:08.310Z,17.90
2017-11-08T11:53:35.422Z,76.05
2017-11-08T11:56:02.787Z,25.45
2017-11-08T11:58:29.148Z,16.52
2017-11-08T12:00:55.472Z,16.48
2017-11-08T12:03:21.787Z,17.02
2017-11-08T12:05:48.925Z,17.80
2017-11-08T12:08:16.027Z,19.00
2017-11-08T12:10:42.357Z,17.27
2017-11-08T12:13:08.678Z,16.73
2017-11-08T12:15:35.043Z,16.45
2017-11-08T12:18:01.368Z,16.20
2017-11-08T12:20:27.675Z,18.60
2017-11-08T12:22:53.995Z,17.83
2017-11-08T12:25:20.328Z,16.60
2017-11-08T12:27:46.644Z,17.25
2017-11-08T12:30:13.008Z,17.42
2017-11-08T12:32:39.336Z,15.60
2017-11-08T12:35:06.423Z,16.27
2017-11-08T12:37:33.766Z,15.23
2017-11-08T12:40:01.941Z,15.15
2017-11-08T12:42:28.332Z,15.40
2017-11-08T12:44:56.587Z,16.23
2017-11-08T12:47:22.905Z,16.87
2017-11-08T12:49:49.980Z,16.15
2017-11-08T12:52:16.316Z,16.02
2017-11-08T12:54:42.624Z,15.90
2017-11-08T12:57:08.935Z,15.33
2017-11-08T12:59:35.247Z,18.40
2017-11-08T13:02:02.339Z,16.97
2017-11-08T13:04:28.645Z,17.95
2017-11-08T13:06:54.988Z,15.38
2017-11-08T13:09:22.040Z,14.25
2017-11-08T13:11:49.816Z,16.12
2017-11-08T13:14:16.891Z,15.97
2017-11-08T13:16:43.947Z,15.88
2017-11-08T13:19:11.016Z,14.37
2017-11-08T13:21:37.365Z,16.43
2017-11-08T13:24:03.705Z,16.73
2017-11-08T13:26:30.104Z,18.25
2017-11-08T13:28:56.582Z,17.57
2017-11-08T13:31:23.032Z,15.20
2017-11-08T13:33:49.477Z,16.77
2017-11-08T13:36:15.980Z,15.07
2017-11-08T13:38:42.368Z,17.30
2017-11-08T13:41:08.794Z,18.05
2017-11-08T13:43:35.242Z,16.10
2017-11-08T13:46:01.673Z,17.67
2017-11-08T13:48:28.880Z,16.55
2017-11-08T13:50:55.280Z,16.48
2017-11-08T13:53:21.712Z,17.15
2017-11-08T13:55:48.877Z,15.50
2017-11-08T13:58:17.077Z,16.17
2017-11-08T14:00:44.216Z,17.02
2017-11-08T14:03:11.436Z,15.85
2017-11-08T14:05:37.904Z,17.45
2017-11-08T14:08:04.349Z,16.30
2017-11-08T14:10:30.853Z,16.95
2017-11-08T14:12:57.981Z,17.00
2017-11-08T14:15:24.391Z,16.33
2017-11-08T14:17:50.820Z,14.90
2017-11-08T14:20:17.247Z,14.38
2017-11-08T14:22:44.425Z,16.50
2017-11-08T14:25:11.900Z,16.65
2017-11-08T14:27:38.280Z,16.30
2017-11-08T14:30:04.678Z,16.67
2017-11-08T14:32:31.109Z,15.77
2017-11-08T14:34:58.246Z,17.47
2017-11-08T14:37:25.413Z,17.65
2017-11-08T14:39:52.620Z,16.75
2017-11-08T14:42:20.852Z,17.42
2017-11-08T14:44:47.261Z,17.87
2017-11-08T14:47:13.697Z,16.50
2017-11-08T14:49:40.096Z,16.80
2017-11-08T14:52:07.240Z,17.40
2017-11-08T14:54:34.414Z,17.37
2017-11-08T14:57:01.624Z,17.48
2017-11-08T14:59:28.018Z,17.02
2017-11-08T15:01:55.212Z,16.40
2017-11-08T15:04:22.345Z,17.12
2017-11-08T15:06:48.749Z,18.87
2017-11-08T15:09:15.176Z,17.25
2017-11-08T15:11:44.504Z,18.58
2017-11-08T15:14:30.853Z,16.70
2017-11-08T15:16:58.040Z,17.40
2017-11-08T15:19:28.186Z,17.90
2017-11-08T15:21:55.723Z,16.73
2017-11-08T15:24:22.893Z,20.57
2017-11-08T15:26:50.116Z,20.15
2017-11-08T15:29:16.532Z,18.20
2017-11-08T15:31:42.889Z,19.73
2017-11-08T15:34:09.296Z,20.27
2017-11-08T15:36:35.705Z,17.55
2017-11-08T15:39:02.232Z,18.58
2017-11-08T15:41:28.676Z,18.10
2017-11-08T15:43:55.108Z,18.65
2017-11-08T15:46:21.533Z,20.45
2017-11-08T15:48:48.673Z,18.40
2017-11-08T15:51:15.125Z,19.60
2017-11-08T15:53:41.697Z,19.75
2017-11-08T15:56:08.076Z,21.83
2017-11-08T15:58:35.294Z,21.25
2017-11-08T16:01:01.708Z,22.67
2017-11-08T16:03:28.194Z,24.40
2017-11-08T16:05:54.634Z,25.85
2017-11-08T16:08:21.841Z,30.27
2017-11-08T16:10:48.464Z,30.15
2017-11-08T16:13:15.066Z,29.83
2017-11-08T16:15:42.485Z,29.87
2017-11-08T16:18:08.966Z,28.10
2017-11-08T16:20:35.520Z,30.05
2017-11-08T16:23:03.151Z,28.42
2017-11-08T16:25:29.720Z,29.67
2017-11-08T16:27:57.104Z,29.02
2017-11-08T16:30:25.191Z,28.92
2017-11-08T16:32:52.707Z,29.35
2017-11-08T16:35:20.172Z,29.00
2017-11-08T16:37:49.179Z,26.58
2017-11-08T16:40:17.899Z,27.47
2017-11-08T16:42:46.701Z,31.30
2017-11-08T16:45:16.123Z,27.15
2017-11-08T16:47:44.683Z,26.67
2017-11-08T16:50:14.037Z,25.55
2017-11-08T16:52:42.511Z,25.87
2017-11-08T16:55:12.673Z,28.35
2017-11-08T16:57:41.559Z,24.50
2017-11-08T17:00:10.695Z,26.77
2017-11-08T17:02:39.602Z,24.10
2017-11-08T17:05:09.124Z,26.75
2017-11-08T17:07:37.926Z,23.65
2017-11-08T17:10:07.219Z,24.37
2017-11-08T17:12:35.959Z,24.27
2017-11-08T17:15:04.913Z,20.05
2017-11-08T17:17:33.845Z,21.25
2017-11-08T17:20:02.666Z,19.83
2017-11-08T17:22:31.629Z,19.05
2017-11-08T17:25:00.382Z,19.10
2017-11-08T17:27:29.221Z,18.48
2017-11-08T17:29:59.258Z,20.15
2017-11-08T17:32:27.784Z,17.58
2017-11-08T17:34:56.778Z,18.30
2017-11-08T17:37:25.955Z,16.10
2017-11-08T17:39:54.862Z,16.98
2017-11-08T17:42:24.073Z,19.10
2017-11-08T17:44:53.618Z,16.62
2017-11-08T17:47:22.726Z,18.75
2017-11-08T17:49:51.615Z,19.58
2017-11-08T17:52:20.615Z,17.37
2017-11-08T17:54:49.606Z,18.00
2017-11-08T17:57:18.670Z,17.67
2017-11-08T17:59:48.212Z,17.42
2017-11-08T18:02:16.985Z,19.55
2017-11-08T18:04:46.013Z,20.00
2017-11-08T18:07:14.504Z,20.37
2017-11-08T18:09:43.306Z,19.15
2017-11-08T18:12:12.237Z,21.35
2017-11-08T18:14:41.032Z,19.00
2017-11-08T18:17:10.532Z,21.80
2017-11-08T18:19:39.259Z,18.98
2017-11-08T18:22:09.285Z,20.30
2017-11-08T18:24:38.080Z,23.40
2017-11-08T18:27:06.948Z,24.00
2017-11-08T18:29:36.260Z,22.90
2017-11-08T18:32:05.230Z,21.67
2017-11-08T18:34:34.993Z,24.90
2017-11-08T18:37:04.553Z,25.23
2017-11-08T18:39:35.753Z,33.95
2017-11-08T18:42:04.882Z,35.63
2017-11-08T18:44:34.840Z,27.48
2017-11-08T18:47:05.543Z,26.17
2017-11-08T18:49:34.272Z,24.45
2017-11-08T18:52:03.490Z,22.25
2017-11-08T18:54:33.820Z,25.58
2017-11-08T18:57:03.578Z,27.17
2017-11-08T18:59:33.351Z,27.73
2017-11-08T19:02:02.032Z,27.02
2017-11-08T19:04:31.053Z,23.95
2017-11-08T19:06:59.796Z,29.20
2017-11-08T19:09:30.620Z,28.60
2017-11-08T19:11:59.406Z,29.27
2017-11-08T19:14:28.402Z,28.80
2017-11-08T19:16:57.347Z,29.87
2017-11-08T19:19:27.433Z,31.58
2017-11-08T19:21:56.487Z,30.12
2017-11-08T19:24:27.441Z,30.45
2017-11-08T19:26:56.547Z,28.87
2017-11-08T19:29:26.556Z,28.30
2017-11-08T19:31:55.432Z,27.77
2017-11-08T19:34:24.585Z,26.75
2017-11-08T19:36:54.084Z,26.20
2017-11-08T19:39:23.418Z,29.00
2017-11-08T19:41:56.516Z,36.60
2017-11-08T19:44:26.651Z,47.38
2017-11-08T19:46:56.572Z,32.22
2017-11-08T19:49:26.287Z,28.75
2017-11-08T19:51:55.302Z,27.05
2017-11-08T19:54:26.099Z,29.73
2017-11-08T19:56:55.262Z,30.42
2017-11-08T19:59:26.729Z,26.05
2017-11-08T20:01:56.415Z,28.25
2017-11-08T20:04:25.126Z,29.00
2017-11-08T20:06:55.000Z,29.20
2017-11-08T20:09:23.890Z,27.42
2017-11-08T20:11:52.892Z,26.92
2017-11-08T20:14:22.912Z,27.90
2017-11-08T20:16:53.353Z,25.65
2017-11-08T20:19:22.661Z,27.85
2017-11-08T20:21:51.931Z,27.70
2017-11-08T20:24:21.066Z,27.13
2017-11-08T20:26:49.881Z,27.20
2017-11-08T20:29:19.726Z,28.48
2017-11-08T20:31:48.454Z,29.05
2017-11-08T20:34:17.167Z,27.55
2017-11-08T20:36:46.174Z,28.70
2017-11-08T20:39:15.422Z,27.75
2017-11-08T20:41:44.601Z,27.42
2017-11-08T20:44:13.595Z,26.77
2017-11-08T20:46:43.139Z,28.35
2017-11-08T20:49:11.723Z,25.92
2017-11-08T20:51:41.165Z,28.12
2017-11-08T20:54:11.316Z,27.10
2017-11-08T20:56:40.895Z,25.20
2017-11-08T20:59:09.671Z,25.80
2017-11-08T21:01:38.167Z,26.30
2017-11-08T21:04:08.151Z,27.30
2017-11-08T21:06:37.855Z,24.80
2017-11-08T21:09:07.897Z,26.45
2017-11-08T21:11:37.917Z,26.25
2017-11-08T21:14:07.710Z,24.35
2017-11-08T21:16:37.514Z,25.65
2017-11-08T21:19:06.250Z,28.98
2017-11-08T21:21:35.135Z,24.83
2017-11-08T21:24:03.923Z,27.00
2017-11-08T21:26:33.303Z,25.00
2017-11-08T21:29:02.763Z,22.92
2017-11-08T21:31:31.649Z,24.40
2017-11-08T21:34:00.302Z,26.27
2017-11-08T21:36:30.691Z,26.00
2017-11-08T21:39:00.106Z,24.40
2017-11-08T21:41:29.019Z,26.75
2017-11-08T21:43:58.062Z,23.27
2017-11-08T21:46:26.992Z,24.80
2017-11-08T21:48:55.835Z,24.42
2017-11-08T21:51:24.863Z,23.48
2017-11-08T21:53:54.754Z,23.08
2017-11-08T21:56:24.208Z,22.20
2017-11-08T21:58:53.170Z,23.52
2017-11-08T22:01:22.224Z,24.52
2017-11-08T22:03:52.265Z,20.48
2017-11-08T22:06:22.372Z,24.27
2017-11-08T22:08:51.189Z,22.05
2017-11-08T22:11:20.682Z,23.48
2017-11-08T22:13:49.695Z,23.50
2017-11-08T22:16:18.503Z,21.67
2017-11-08T22:18:47.205Z,22.33
2017-11-08T22:21:16.764Z,20.55
2017-11-08T22:23:45.370Z,24.08
2017-11-08T22:26:15.247Z,23.05
2017-11-08T22:28:44.027Z,23.45
2017-11-08T22:31:12.924Z,22.77
2017-11-08T22:33:41.627Z,22.98
2017-11-08T22:36:10.648Z,24.90
2017-11-08T22:38:39.709Z,23.25
2017-11-08T22:41:08.547Z,24.12
2017-11-08T22:43:35.882Z,22.95
2017-11-08T22:46:02.363Z,24.05
2017-11-08T22:48:28.653Z,23.73
2017-11-08T22:50:55.776Z,22.87
2017-11-08T22:53:22.073Z,23.35
2017-11-08T22:55:48.391Z,22.58
2017-11-08T22:58:15.455Z,22.30
2017-11-08T23:00:41.728Z,23.62
2017-11-08T23:03:09.839Z,20.52
2017-11-08T23:05:36.140Z,21.12
2017-11-08T23:08:03.172Z,21.08
2017-11-08T23:10:29.448Z,21.50
2017-11-08T23:12:56.451Z,23.23
2017-11-08T23:15:22.734Z,22.50
2017-11-08T23:17:49.775Z,22.62
2017-11-08T23:20:16.071Z,22.65
2017-11-08T23:22:42.347Z,21.10
2017-11-08T23:25:08.657Z,21.55
2017-11-08T23:27:34.973Z,22.37
2017-11-08T23:30:01.267Z,22.23
2017-11-08T23:32:27.567Z,22.23
2017-11-08T23:34:54.760Z,23.12
2017-11-08T23:37:21.052Z,22.98
2017-11-08T23:39:48.083Z,25.75
2017-11-08T23:42:14.353Z,19.80
2017-11-08T23:44:41.407Z,19.23
2017-11-08T23:47:07.719Z,19.20
2017-11-08T23:49:34.003Z,20.95
2017-11-08T23:52:00.336Z,20.95
2017-11-08T23:54:26.623Z,23.45
2017-11-08T23:56:52.892Z,22.00
2017-11-08T23:59:26.144Z,24.70
